sensor_id;sensor_type;location;lat;lon;timestamp;P1;durP1;ratioP1;P2;durP2;ratioP2
3085;SDS011;52812;48.960;9.108;2023-08-31T00:02:12;3.40;;;3.10;;
3085;SDS011;52812;48.960;9.108;2023-08-31T00:04:37;6.87;;;3.27;;
3085;SDS011;52812;48.960;9.108;2023-08-31T00:07:03;6.83;;;4.10;;
3085;SDS011;52812;48.960;9.108;2023-08-31T00:09:28;6.50;;;3.93;;
3085;SDS011;52812;48.960;9.108;2023-08-31T00:11:57;4.60;;;3.50;;
3085;SDS011;52812;48.960;9.108;2023-08-31T00:14:23;5.30;;;3.20;;
3085;SDS011;52812;48.960;9.108;2023-08-31T00:16:49;4.90;;;4.07;;
3085;SDS011;52812;48.960;9.108;2023-08-31T00:19:15;5.43;;;3.37;;
3085;SDS011;52812;48.960;9.108;2023-08-31T00:21:41;4.40;;;3.37;;
3085;SDS011;52812;48.960;9.108;2023-08-31T00:24:07;4.40;;;3.37;;
3085;SDS011;52812;48.960;9.108;2023-08-31T00:26:34;6.17;;;3.40;;
3085;SDS011;52812;48.960;9.108;2023-08-31T00:29:05;3.90;;;3.33;;
3085;SDS011;52812;48.960;9.108;2023-08-31T00:31:30;4.50;;;2.93;;
3085;SDS011;52812;48.960;9.108;2023-08-31T00:33:56;5.07;;;3.50;;
3085;SDS011;52812;48.960;9.108;2023-08-31T00:36:21;6.80;;;3.60;;
3085;SDS011;52812;48.960;9.108;2023-08-31T00:38:48;5.23;;;3.10;;
3085;SDS011;52812;48.960;9.108;2023-08-31T00:41:14;6.23;;;3.57;;
3085;SDS011;52812;48.960;9.108;2023-08-31T00:43:39;7.10;;;3.40;;
3085;SDS011;52812;48.960;9.108;2023-08-31T00:46:05;4.37;;;3.37;;
3085;SDS011;52812;48.960;9.108;2023-08-31T00:48:31;4.97;;;3.50;;
3085;SDS011;52812;48.960;9.108;2023-08-31T00:50:57;6.70;;;3.83;;
3085;SDS011;52812;48.960;9.108;2023-08-31T00:53:23;4.70;;;4.03;;
3085;SDS011;52812;48.960;9.108;2023-08-31T00:55:48;4.70;;;4.17;;
3085;SDS011;52812;48.960;9.108;2023-08-31T00:58:14;5.20;;;3.87;;
3085;SDS011;52812;48.960;9.108;2023-08-31T01:00:47;6.73;;;4.03;;
3085;SDS011;52812;48.960;9.108;2023-08-31T01:14:25;4.53;;;3.37;;
3085;SDS011;52812;48.960;9.108;2023-08-31T01:16:57;5.33;;;3.67;;
3085;SDS011;52812;48.960;9.108;2023-08-31T01:19:42;4.77;;;3.70;;
3085;SDS011;52812;48.960;9.108;2023-08-31T01:22:30;6.80;;;3.67;;
3085;SDS011;52812;48.960;9.108;2023-08-31T01:24:57;6.83;;;3.43;;
3085;SDS011;52812;48.960;9.108;2023-08-31T01:27:28;5.17;;;3.80;;
3085;SDS011;52812;48.960;9.108;2023-08-31T01:29:58;5.80;;;3.63;;
3085;SDS011;52812;48.960;9.108;2023-08-31T01:32:24;7.43;;;4.30;;
3085;SDS011;52812;48.960;9.108;2023-08-31T01:34:49;5.27;;;4.00;;
3085;SDS011;52812;48.960;9.108;2023-08-31T01:37:26;4.13;;;3.43;;
3085;SDS011;52812;48.960;9.108;2023-08-31T01:40:01;5.30;;;3.70;;
3085;SDS011;52812;48.960;9.108;2023-08-31T01:42:31;7.10;;;3.70;;
3085;SDS011;52812;48.960;9.108;2023-08-31T01:44:57;5.43;;;4.23;;
3085;SDS011;52812;48.960;9.108;2023-08-31T01:47:25;4.63;;;3.40;;
3085;SDS011;52812;48.960;9.108;2023-08-31T01:49:51;5.20;;;3.70;;
3085;SDS011;52812;48.960;9.108;2023-08-31T01:52:18;5.40;;;4.03;;
3085;SDS011;52812;48.960;9.108;2023-08-31T01:54:43;5.43;;;4.20;;
3085;SDS011;52812;48.960;9.108;2023-08-31T01:57:09;5.90;;;4.60;;
3085;SDS011;52812;48.960;9.108;2023-08-31T01:59:34;5.97;;;4.00;;
3085;SDS011;52812;48.960;9.108;2023-08-31T02:02:00;5.13;;;4.00;;
3085;SDS011;52812;48.960;9.108;2023-08-31T02:04:26;5.17;;;4.23;;
3085;SDS011;52812;48.960;9.108;2023-08-31T02:06:52;5.23;;;4.33;;
3085;SDS011;52812;48.960;9.108;2023-08-31T02:09:17;5.40;;;4.43;;
3085;SDS011;52812;48.960;9.108;2023-08-31T02:11:43;7.10;;;4.30;;
3085;SDS011;52812;48.960;9.108;2023-08-31T02:14:08;7.70;;;5.17;;
3085;SDS011;52812;48.960;9.108;2023-08-31T02:16:34;7.10;;;4.60;;
3085;SDS011;52812;48.960;9.108;2023-08-31T02:18:59;6.00;;;4.80;;
3085;SDS011;52812;48.960;9.108;2023-08-31T02:21:25;7.27;;;3.80;;
3085;SDS011;52812;48.960;9.108;2023-08-31T02:23:51;6.20;;;4.20;;
3085;SDS011;52812;48.960;9.108;2023-08-31T02:26:16;11.80;;;4.40;;
3085;SDS011;52812;48.960;9.108;2023-08-31T02:28:42;4.43;;;3.77;;
3085;SDS011;52812;48.960;9.108;2023-08-31T02:31:10;4.63;;;3.80;;
3085;SDS011;52812;48.960;9.108;2023-08-31T02:33:36;5.07;;;3.43;;
3085;SDS011;52812;48.960;9.108;2023-08-31T02:36:02;8.57;;;3.83;;
3085;SDS011;52812;48.960;9.108;2023-08-31T02:38:28;7.10;;;4.00;;
3085;SDS011;52812;48.960;9.108;2023-08-31T02:40:53;6.63;;;3.60;;
3085;SDS011;52812;48.960;9.108;2023-08-31T02:43:19;5.00;;;4.03;;
3085;SDS011;52812;48.960;9.108;2023-08-31T02:45:44;6.40;;;3.63;;
3085;SDS011;52812;48.960;9.108;2023-08-31T02:48:10;6.00;;;4.40;;
3085;SDS011;52812;48.960;9.108;2023-08-31T02:50:36;5.07;;;4.00;;
3085;SDS011;52812;48.960;9.108;2023-08-31T02:53:01;4.50;;;3.77;;
3085;SDS011;52812;48.960;9.108;2023-08-31T02:55:27;5.90;;;4.27;;
3085;SDS011;52812;48.960;9.108;2023-08-31T02:57:53;5.70;;;3.73;;
3085;SDS011;52812;48.960;9.108;2023-08-31T03:00:18;4.77;;;3.90;;
3085;SDS011;52812;48.960;9.108;2023-08-31T03:02:49;6.07;;;4.30;;
3085;SDS011;52812;48.960;9.108;2023-08-31T03:05:18;5.00;;;3.87;;
3085;SDS011;52812;48.960;9.108;2023-08-31T03:07:46;5.37;;;4.27;;
3085;SDS011;52812;48.960;9.108;2023-08-31T03:10:12;7.13;;;4.20;;
3085;SDS011;52812;48.960;9.108;2023-08-31T03:12:37;4.90;;;4.00;;
3085;SDS011;52812;48.960;9.108;2023-08-31T03:15:04;5.43;;;4.17;;
3085;SDS011;52812;48.960;9.108;2023-08-31T03:17:30;5.10;;;4.10;;
3085;SDS011;52812;48.960;9.108;2023-08-31T03:19:56;4.27;;;3.87;;
3085;SDS011;52812;48.960;9.108;2023-08-31T03:22:22;6.53;;;4.23;;
3085;SDS011;52812;48.960;9.108;2023-08-31T03:24:47;8.30;;;3.90;;
3085;SDS011;52812;48.960;9.108;2023-08-31T03:27:13;4.50;;;3.73;;
3085;SDS011;52812;48.960;9.108;2023-08-31T03:29:40;5.17;;;4.10;;
3085;SDS011;52812;48.960;9.108;2023-08-31T03:32:06;6.17;;;3.90;;
3085;SDS011;52812;48.960;9.108;2023-08-31T03:34:32;5.70;;;4.40;;
3085;SDS011;52812;48.960;9.108;2023-08-31T03:36:58;9.67;;;4.43;;
3085;SDS011;52812;48.960;9.108;2023-08-31T03:39:24;4.77;;;4.10;;
3085;SDS011;52812;48.960;9.108;2023-08-31T03:41:50;5.27;;;4.00;;
3085;SDS011;52812;48.960;9.108;2023-08-31T03:44:15;5.40;;;4.07;;
3085;SDS011;52812;48.960;9.108;2023-08-31T03:46:42;8.60;;;4.20;;
3085;SDS011;52812;48.960;9.108;2023-08-31T03:49:07;4.27;;;3.70;;
3085;SDS011;52812;48.960;9.108;2023-08-31T03:51:33;4.70;;;3.90;;
3085;SDS011;52812;48.960;9.108;2023-08-31T03:53:59;6.63;;;3.80;;
3085;SDS011;52812;48.960;9.108;2023-08-31T03:56:24;6.30;;;4.57;;
3085;SDS011;52812;48.960;9.108;2023-08-31T03:58:50;5.47;;;4.30;;
3085;SDS011;52812;48.960;9.108;2023-08-31T04:01:15;6.53;;;4.70;;
3085;SDS011;52812;48.960;9.108;2023-08-31T04:03:42;4.60;;;3.60;;
3085;SDS011;52812;48.960;9.108;2023-08-31T04:06:08;6.20;;;4.60;;
3085;SDS011;52812;48.960;9.108;2023-08-31T04:08:33;5.10;;;4.10;;
3085;SDS011;52812;48.960;9.108;2023-08-31T04:10:59;6.37;;;3.97;;
3085;SDS011;52812;48.960;9.108;2023-08-31T04:13:25;7.03;;;4.50;;
3085;SDS011;52812;48.960;9.108;2023-08-31T04:15:51;7.20;;;4.60;;
3085;SDS011;52812;48.960;9.108;2023-08-31T04:18:17;5.80;;;4.97;;
3085;SDS011;52812;48.960;9.108;2023-08-31T04:20:50;8.30;;;4.30;;
3085;SDS011;52812;48.960;9.108;2023-08-31T04:23:17;5.60;;;4.27;;
3085;SDS011;52812;48.960;9.108;2023-08-31T04:25:44;5.20;;;4.70;;
3085;SDS011;52812;48.960;9.108;2023-08-31T04:28:10;8.53;;;4.60;;
3085;SDS011;52812;48.960;9.108;2023-08-31T04:30:36;5.73;;;4.70;;
3085;SDS011;52812;48.960;9.108;2023-08-31T04:33:02;4.73;;;4.10;;
3085;SDS011;52812;48.960;9.108;2023-08-31T04:35:29;5.57;;;4.47;;
3085;SDS011;52812;48.960;9.108;2023-08-31T04:37:56;6.67;;;4.77;;
3085;SDS011;52812;48.960;9.108;2023-08-31T04:40:22;5.83;;;4.23;;
3085;SDS011;52812;48.960;9.108;2023-08-31T04:42:48;6.60;;;4.90;;
3085;SDS011;52812;48.960;9.108;2023-08-31T04:45:13;6.00;;;4.47;;
3085;SDS011;52812;48.960;9.108;2023-08-31T04:47:39;8.90;;;4.30;;
3085;SDS011;52812;48.960;9.108;2023-08-31T04:50:05;5.63;;;4.40;;
3085;SDS011;52812;48.960;9.108;2023-08-31T04:52:31;7.10;;;4.43;;
3085;SDS011;52812;48.960;9.108;2023-08-31T04:54:57;8.47;;;5.10;;
3085;SDS011;52812;48.960;9.108;2023-08-31T04:57:23;9.13;;;5.07;;
3085;SDS011;52812;48.960;9.108;2023-08-31T04:59:50;5.80;;;4.60;;
3085;SDS011;52812;48.960;9.108;2023-08-31T05:02:15;7.83;;;5.20;;
3085;SDS011;52812;48.960;9.108;2023-08-31T05:04:41;6.43;;;4.43;;
3085;SDS011;52812;48.960;9.108;2023-08-31T05:07:06;7.20;;;4.60;;
3085;SDS011;52812;48.960;9.108;2023-08-31T05:09:32;6.20;;;4.70;;
3085;SDS011;52812;48.960;9.108;2023-08-31T05:12:00;6.47;;;4.63;;
3085;SDS011;52812;48.960;9.108;2023-08-31T05:14:27;5.20;;;4.20;;
3085;SDS011;52812;48.960;9.108;2023-08-31T05:16:53;6.03;;;4.70;;
3085;SDS011;52812;48.960;9.108;2023-08-31T05:19:18;6.37;;;4.90;;
3085;SDS011;52812;48.960;9.108;2023-08-31T05:21:44;6.07;;;4.40;;
3085;SDS011;52812;48.960;9.108;2023-08-31T05:24:09;6.90;;;4.80;;
3085;SDS011;52812;48.960;9.108;2023-08-31T05:26:35;5.50;;;4.60;;
3085;SDS011;52812;48.960;9.108;2023-08-31T05:29:00;6.83;;;4.63;;
3085;SDS011;52812;48.960;9.108;2023-08-31T05:31:26;7.07;;;4.57;;
3085;SDS011;52812;48.960;9.108;2023-08-31T05:33:51;6.93;;;4.20;;
3085;SDS011;52812;48.960;9.108;2023-08-31T05:36:17;5.93;;;4.63;;
3085;SDS011;52812;48.960;9.108;2023-08-31T05:38:43;5.30;;;3.87;;
3085;SDS011;52812;48.960;9.108;2023-08-31T05:41:08;7.23;;;3.90;;
3085;SDS011;52812;48.960;9.108;2023-08-31T05:43:35;4.67;;;3.90;;
3085;SDS011;52812;48.960;9.108;2023-08-31T05:46:01;6.20;;;3.83;;
3085;SDS011;52812;48.960;9.108;2023-08-31T05:48:27;5.33;;;3.77;;
3085;SDS011;52812;48.960;9.108;2023-08-31T05:50:53;7.83;;;4.27;;
3085;SDS011;52812;48.960;9.108;2023-08-31T05:53:20;5.20;;;3.80;;
3085;SDS011;52812;48.960;9.108;2023-08-31T05:55:45;6.87;;;4.30;;
3085;SDS011;52812;48.960;9.108;2023-08-31T05:58:11;6.30;;;3.93;;
3085;SDS011;52812;48.960;9.108;2023-08-31T06:00:36;6.73;;;4.10;;
3085;SDS011;52812;48.960;9.108;2023-08-31T06:03:03;4.07;;;3.60;;
3085;SDS011;52812;48.960;9.108;2023-08-31T06:05:30;5.37;;;3.80;;
3085;SDS011;52812;48.960;9.108;2023-08-31T06:07:56;5.43;;;3.30;;
3085;SDS011;52812;48.960;9.108;2023-08-31T06:10:22;5.10;;;3.17;;
3085;SDS011;52812;48.960;9.108;2023-08-31T06:12:49;3.57;;;2.70;;
3085;SDS011;52812;48.960;9.108;2023-08-31T06:15:15;4.40;;;2.97;;
3085;SDS011;52812;48.960;9.108;2023-08-31T06:17:44;4.20;;;3.20;;
3085;SDS011;52812;48.960;9.108;2023-08-31T06:20:10;3.23;;;2.90;;
3085;SDS011;52812;48.960;9.108;2023-08-31T06:22:36;7.07;;;3.20;;
3085;SDS011;52812;48.960;9.108;2023-08-31T06:25:04;3.60;;;2.90;;
3085;SDS011;52812;48.960;9.108;2023-08-31T06:27:30;4.20;;;2.90;;
3085;SDS011;52812;48.960;9.108;2023-08-31T06:29:56;3.20;;;2.70;;
3085;SDS011;52812;48.960;9.108;2023-08-31T06:32:24;4.57;;;2.70;;
3085;SDS011;52812;48.960;9.108;2023-08-31T06:34:50;8.63;;;3.63;;
3085;SDS011;52812;48.960;9.108;2023-08-31T06:37:15;3.20;;;2.70;;
3085;SDS011;52812;48.960;9.108;2023-08-31T06:39:41;4.00;;;2.73;;
3085;SDS011;52812;48.960;9.108;2023-08-31T06:42:07;4.00;;;2.80;;
3085;SDS011;52812;48.960;9.108;2023-08-31T06:44:32;2.97;;;2.40;;
3085;SDS011;52812;48.960;9.108;2023-08-31T06:46:58;3.20;;;2.60;;
3085;SDS011;52812;48.960;9.108;2023-08-31T06:49:23;3.57;;;2.50;;
3085;SDS011;52812;48.960;9.108;2023-08-31T06:51:49;3.57;;;2.33;;
3085;SDS011;52812;48.960;9.108;2023-08-31T06:54:15;7.67;;;2.50;;
3085;SDS011;52812;48.960;9.108;2023-08-31T06:56:40;4.20;;;2.60;;
3085;SDS011;52812;48.960;9.108;2023-08-31T06:59:07;3.00;;;2.50;;
3085;SDS011;52812;48.960;9.108;2023-08-31T07:01:32;7.10;;;2.40;;
3085;SDS011;52812;48.960;9.108;2023-08-31T07:03:58;2.70;;;2.30;;
3085;SDS011;52812;48.960;9.108;2023-08-31T07:06:23;4.73;;;2.20;;
3085;SDS011;52812;48.960;9.108;2023-08-31T07:08:49;5.60;;;2.40;;
3085;SDS011;52812;48.960;9.108;2023-08-31T07:11:15;4.63;;;2.33;;
3085;SDS011;52812;48.960;9.108;2023-08-31T07:13:42;3.60;;;2.90;;
3085;SDS011;52812;48.960;9.108;2023-08-31T07:16:07;2.67;;;2.40;;
3085;SDS011;52812;48.960;9.108;2023-08-31T07:18:33;4.07;;;2.37;;
3085;SDS011;52812;48.960;9.108;2023-08-31T07:20:58;3.37;;;2.40;;
3085;SDS011;52812;48.960;9.108;2023-08-31T07:23:24;5.23;;;2.57;;
3085;SDS011;52812;48.960;9.108;2023-08-31T07:25:49;3.20;;;2.23;;
3085;SDS011;52812;48.960;9.108;2023-08-31T07:28:15;12.33;;;2.70;;
3085;SDS011;52812;48.960;9.108;2023-08-31T07:30:41;2.47;;;2.03;;
3085;SDS011;52812;48.960;9.108;2023-08-31T07:33:06;5.10;;;2.20;;
3085;SDS011;52812;48.960;9.108;2023-08-31T07:35:32;3.20;;;2.00;;
3085;SDS011;52812;48.960;9.108;2023-08-31T07:37:58;3.93;;;2.20;;
3085;SDS011;52812;48.960;9.108;2023-08-31T07:40:23;2.63;;;2.27;;
3085;SDS011;52812;48.960;9.108;2023-08-31T07:42:50;3.30;;;2.50;;
3085;SDS011;52812;48.960;9.108;2023-08-31T07:45:16;3.30;;;1.90;;
3085;SDS011;52812;48.960;9.108;2023-08-31T07:47:42;3.70;;;2.13;;
3085;SDS011;52812;48.960;9.108;2023-08-31T07:50:08;3.10;;;2.10;;
3085;SDS011;52812;48.960;9.108;2023-08-31T07:52:34;3.40;;;2.17;;
3085;SDS011;52812;48.960;9.108;2023-08-31T07:54:59;3.60;;;1.87;;
3085;SDS011;52812;48.960;9.108;2023-08-31T07:57:25;4.23;;;2.40;;
3085;SDS011;52812;48.960;9.108;2023-08-31T07:59:51;2.53;;;2.20;;
3085;SDS011;52812;48.960;9.108;2023-08-31T08:02:16;3.40;;;2.30;;
3085;SDS011;52812;48.960;9.108;2023-08-31T08:04:42;2.57;;;2.10;;
3085;SDS011;52812;48.960;9.108;2023-08-31T08:07:11;3.97;;;2.10;;
3085;SDS011;52812;48.960;9.108;2023-08-31T08:09:36;3.07;;;2.17;;
3085;SDS011;52812;48.960;9.108;2023-08-31T08:12:02;4.93;;;2.20;;
3085;SDS011;52812;48.960;9.108;2023-08-31T08:14:32;5.77;;;2.60;;
3085;SDS011;52812;48.960;9.108;2023-08-31T08:16:58;3.37;;;2.83;;
3085;SDS011;52812;48.960;9.108;2023-08-31T08:19:24;5.03;;;2.63;;
3085;SDS011;52812;48.960;9.108;2023-08-31T08:21:50;11.33;;;2.93;;
3085;SDS011;52812;48.960;9.108;2023-08-31T08:24:16;3.47;;;2.43;;
3085;SDS011;52812;48.960;9.108;2023-08-31T08:26:44;4.30;;;2.50;;
3085;SDS011;52812;48.960;9.108;2023-08-31T08:29:14;3.40;;;2.37;;
3085;SDS011;52812;48.960;9.108;2023-08-31T08:31:40;2.67;;;2.20;;
3085;SDS011;52812;48.960;9.108;2023-08-31T08:34:06;3.30;;;2.13;;
3085;SDS011;52812;48.960;9.108;2023-08-31T08:36:34;5.00;;;2.20;;
3085;SDS011;52812;48.960;9.108;2023-08-31T08:39:00;5.00;;;2.37;;
3085;SDS011;52812;48.960;9.108;2023-08-31T08:41:25;3.53;;;2.30;;
3085;SDS011;52812;48.960;9.108;2023-08-31T08:43:53;3.83;;;2.23;;
3085;SDS011;52812;48.960;9.108;2023-08-31T08:46:26;3.57;;;2.17;;
3085;SDS011;52812;48.960;9.108;2023-08-31T08:48:52;3.07;;;2.27;;
3085;SDS011;52812;48.960;9.108;2023-08-31T08:51:19;2.93;;;2.20;;
3085;SDS011;52812;48.960;9.108;2023-08-31T08:53:48;2.87;;;2.20;;
3085;SDS011;52812;48.960;9.108;2023-08-31T08:56:16;3.90;;;2.10;;
3085;SDS011;52812;48.960;9.108;2023-08-31T08:58:42;3.53;;;2.73;;
3085;SDS011;52812;48.960;9.108;2023-08-31T09:01:07;2.60;;;2.07;;
3085;SDS011;52812;48.960;9.108;2023-08-31T09:03:42;7.00;;;2.03;;
3085;SDS011;52812;48.960;9.108;2023-08-31T09:06:32;6.07;;;3.00;;
3085;SDS011;52812;48.960;9.108;2023-08-31T09:09:01;7.07;;;2.60;;
3085;SDS011;52812;48.960;9.108;2023-08-31T09:18:07;4.93;;;2.40;;
3085;SDS011;52812;48.960;9.108;2023-08-31T09:24:23;3.43;;;2.40;;
3085;SDS011;52812;48.960;9.108;2023-08-31T09:26:56;3.23;;;2.20;;
3085;SDS011;52812;48.960;9.108;2023-08-31T09:29:22;8.20;;;3.40;;
3085;SDS011;52812;48.960;9.108;2023-08-31T09:31:48;6.60;;;3.03;;
3085;SDS011;52812;48.960;9.108;2023-08-31T09:34:14;4.23;;;2.20;;
3085;SDS011;52812;48.960;9.108;2023-08-31T09:36:41;6.73;;;2.40;;
3085;SDS011;52812;48.960;9.108;2023-08-31T09:39:08;2.87;;;2.27;;
3085;SDS011;52812;48.960;9.108;2023-08-31T09:41:34;4.37;;;2.50;;
3085;SDS011;52812;48.960;9.108;2023-08-31T09:44:17;3.20;;;2.27;;
3085;SDS011;52812;48.960;9.108;2023-08-31T09:46:43;4.37;;;2.40;;
3085;SDS011;52812;48.960;9.108;2023-08-31T09:49:13;2.90;;;2.20;;
3085;SDS011;52812;48.960;9.108;2023-08-31T09:51:41;3.73;;;2.50;;
3085;SDS011;52812;48.960;9.108;2023-08-31T09:54:09;3.87;;;2.20;;
3085;SDS011;52812;48.960;9.108;2023-08-31T09:56:41;5.70;;;2.40;;
3085;SDS011;52812;48.960;9.108;2023-08-31T09:59:07;2.50;;;2.10;;
3085;SDS011;52812;48.960;9.108;2023-08-31T10:01:33;2.60;;;2.33;;
3085;SDS011;52812;48.960;9.108;2023-08-31T10:03:59;3.33;;;2.20;;
3085;SDS011;52812;48.960;9.108;2023-08-31T10:06:25;5.60;;;2.30;;
3085;SDS011;52812;48.960;9.108;2023-08-31T10:08:52;2.83;;;2.37;;
3085;SDS011;52812;48.960;9.108;2023-08-31T10:11:18;3.77;;;2.30;;
3085;SDS011;52812;48.960;9.108;2023-08-31T10:13:43;3.40;;;2.23;;
3085;SDS011;52812;48.960;9.108;2023-08-31T10:16:10;3.40;;;2.10;;
3085;SDS011;52812;48.960;9.108;2023-08-31T10:18:36;2.97;;;1.97;;
3085;SDS011;52812;48.960;9.108;2023-08-31T10:21:02;2.87;;;2.10;;
3085;SDS011;52812;48.960;9.108;2023-08-31T10:23:31;2.40;;;2.13;;
3085;SDS011;52812;48.960;9.108;2023-08-31T10:28:24;2.50;;;2.00;;
3085;SDS011;52812;48.960;9.108;2023-08-31T10:31:03;2.17;;;1.80;;
3085;SDS011;52812;48.960;9.108;2023-08-31T10:33:31;3.10;;;1.87;;
3085;SDS011;52812;48.960;9.108;2023-08-31T10:36:39;3.03;;;1.87;;
3085;SDS011;52812;48.960;9.108;2023-08-31T10:39:12;2.77;;;2.20;;
3085;SDS011;52812;48.960;9.108;2023-08-31T10:41:41;3.67;;;2.10;;
3085;SDS011;52812;48.960;9.108;2023-08-31T10:44:20;4.83;;;1.97;;
3085;SDS011;52812;48.960;9.108;2023-08-31T10:46:47;3.23;;;2.17;;
3085;SDS011;52812;48.960;9.108;2023-08-31T10:49:14;6.07;;;1.93;;
3085;SDS011;52812;48.960;9.108;2023-08-31T10:51:49;2.90;;;2.17;;
3085;SDS011;52812;48.960;9.108;2023-08-31T10:59:23;2.90;;;2.10;;
3085;SDS011;52812;48.960;9.108;2023-08-31T11:02:05;3.20;;;2.07;;
3085;SDS011;52812;48.960;9.108;2023-08-31T11:04:35;3.27;;;2.30;;
3085;SDS011;52812;48.960;9.108;2023-08-31T11:07:24;4.83;;;2.30;;
3085;SDS011;52812;48.960;9.108;2023-08-31T11:09:51;3.80;;;2.47;;
3085;SDS011;52812;48.960;9.108;2023-08-31T11:12:21;5.97;;;2.30;;
3085;SDS011;52812;48.960;9.108;2023-08-31T11:14:47;3.40;;;2.40;;
3085;SDS011;52812;48.960;9.108;2023-08-31T11:17:13;4.77;;;2.60;;
3085;SDS011;52812;48.960;9.108;2023-08-31T11:19:39;7.63;;;2.30;;
3085;SDS011;52812;48.960;9.108;2023-08-31T11:24:53;5.30;;;2.23;;
3085;SDS011;52812;48.960;9.108;2023-08-31T11:27:19;6.50;;;2.57;;
3085;SDS011;52812;48.960;9.108;2023-08-31T11:29:45;3.40;;;2.10;;
3085;SDS011;52812;48.960;9.108;2023-08-31T11:32:11;6.70;;;2.40;;
3085;SDS011;52812;48.960;9.108;2023-08-31T11:34:53;2.83;;;2.10;;
3085;SDS011;52812;48.960;9.108;2023-08-31T11:37:19;4.90;;;2.43;;
3085;SDS011;52812;48.960;9.108;2023-08-31T11:39:52;3.23;;;1.93;;
3085;SDS011;52812;48.960;9.108;2023-08-31T11:42:25;4.23;;;2.10;;
3085;SDS011;52812;48.960;9.108;2023-08-31T11:44:51;4.20;;;2.37;;
3085;SDS011;52812;48.960;9.108;2023-08-31T11:47:18;5.80;;;2.30;;
3085;SDS011;52812;48.960;9.108;2023-08-31T11:49:45;4.40;;;2.30;;
3085;SDS011;52812;48.960;9.108;2023-08-31T11:52:11;4.53;;;2.60;;
3085;SDS011;52812;48.960;9.108;2023-08-31T11:54:38;4.33;;;2.40;;
3085;SDS011;52812;48.960;9.108;2023-08-31T11:57:06;4.63;;;2.30;;
3085;SDS011;52812;48.960;9.108;2023-08-31T11:59:34;5.23;;;2.40;;
3085;SDS011;52812;48.960;9.108;2023-08-31T12:05:17;4.67;;;2.40;;
3085;SDS011;52812;48.960;9.108;2023-08-31T12:07:42;3.63;;;2.20;;
3085;SDS011;52812;48.960;9.108;2023-08-31T12:10:08;4.63;;;2.60;;
3085;SDS011;52812;48.960;9.108;2023-08-31T12:15:39;7.03;;;2.10;;
3085;SDS011;52812;48.960;9.108;2023-08-31T12:18:11;3.33;;;2.23;;
3085;SDS011;52812;48.960;9.108;2023-08-31T12:20:46;5.63;;;2.43;;
3085;SDS011;52812;48.960;9.108;2023-08-31T12:23:15;2.50;;;2.07;;
3085;SDS011;52812;48.960;9.108;2023-08-31T12:25:54;3.90;;;2.40;;
3085;SDS011;52812;48.960;9.108;2023-08-31T12:28:22;5.33;;;2.30;;
3085;SDS011;52812;48.960;9.108;2023-08-31T12:30:52;5.80;;;2.30;;
3085;SDS011;52812;48.960;9.108;2023-08-31T12:33:19;5.83;;;2.43;;
3085;SDS011;52812;48.960;9.108;2023-08-31T12:35:45;4.10;;;2.33;;
3085;SDS011;52812;48.960;9.108;2023-08-31T12:38:12;2.43;;;2.10;;
3085;SDS011;52812;48.960;9.108;2023-08-31T12:40:52;3.37;;;2.33;;
3085;SDS011;52812;48.960;9.108;2023-08-31T12:43:17;4.53;;;2.30;;
3085;SDS011;52812;48.960;9.108;2023-08-31T12:45:43;2.30;;;2.10;;
3085;SDS011;52812;48.960;9.108;2023-08-31T12:48:09;3.23;;;2.20;;
3085;SDS011;52812;48.960;9.108;2023-08-31T12:50:34;3.83;;;2.20;;
3085;SDS011;52812;48.960;9.108;2023-08-31T12:53:00;6.37;;;2.20;;
3085;SDS011;52812;48.960;9.108;2023-08-31T12:55:25;6.23;;;2.30;;
3085;SDS011;52812;48.960;9.108;2023-08-31T12:57:51;4.50;;;2.40;;
3085;SDS011;52812;48.960;9.108;2023-08-31T13:00:17;2.73;;;2.17;;
3085;SDS011;52812;48.960;9.108;2023-08-31T13:02:43;4.77;;;2.60;;
3085;SDS011;52812;48.960;9.108;2023-08-31T13:05:10;3.30;;;2.33;;
3085;SDS011;52812;48.960;9.108;2023-08-31T13:07:36;4.13;;;2.73;;
3085;SDS011;52812;48.960;9.108;2023-08-31T13:10:03;4.20;;;2.43;;
3085;SDS011;52812;48.960;9.108;2023-08-31T13:12:29;2.57;;;2.10;;
3085;SDS011;52812;48.960;9.108;2023-08-31T13:14:56;3.97;;;2.30;;
3085;SDS011;52812;48.960;9.108;2023-08-31T13:17:23;3.50;;;2.13;;
3085;SDS011;52812;48.960;9.108;2023-08-31T13:19:55;3.73;;;2.20;;
3085;SDS011;52812;48.960;9.108;2023-08-31T13:22:22;3.30;;;2.10;;
3085;SDS011;52812;48.960;9.108;2023-08-31T13:24:48;4.43;;;2.63;;
3085;SDS011;52812;48.960;9.108;2023-08-31T13:27:14;5.10;;;2.70;;
3085;SDS011;52812;48.960;9.108;2023-08-31T13:29:40;4.47;;;2.40;;
3085;SDS011;52812;48.960;9.108;2023-08-31T13:32:06;4.40;;;2.40;;
3085;SDS011;52812;48.960;9.108;2023-08-31T13:34:32;3.60;;;2.00;;
3085;SDS011;52812;48.960;9.108;2023-08-31T13:36:58;2.40;;;2.10;;
3085;SDS011;52812;48.960;9.108;2023-08-31T13:39:25;5.00;;;2.87;;
3085;SDS011;52812;48.960;9.108;2023-08-31T13:41:51;11.03;;;3.30;;
3085;SDS011;52812;48.960;9.108;2023-08-31T13:44:17;3.33;;;2.10;;
3085;SDS011;52812;48.960;9.108;2023-08-31T13:46:46;2.97;;;2.10;;
3085;SDS011;52812;48.960;9.108;2023-08-31T13:49:13;4.17;;;2.20;;
3085;SDS011;52812;48.960;9.108;2023-08-31T13:51:39;3.80;;;2.70;;
3085;SDS011;52812;48.960;9.108;2023-08-31T13:54:05;5.27;;;2.33;;
3085;SDS011;52812;48.960;9.108;2023-08-31T13:56:32;3.90;;;2.10;;
3085;SDS011;52812;48.960;9.108;2023-08-31T13:58:58;3.30;;;2.40;;
3085;SDS011;52812;48.960;9.108;2023-08-31T14:01:24;3.50;;;2.20;;
3085;SDS011;52812;48.960;9.108;2023-08-31T14:03:50;5.97;;;2.30;;
3085;SDS011;52812;48.960;9.108;2023-08-31T14:06:15;4.63;;;2.40;;
3085;SDS011;52812;48.960;9.108;2023-08-31T14:08:41;3.43;;;2.07;;
3085;SDS011;52812;48.960;9.108;2023-08-31T14:11:06;2.20;;;2.00;;
3085;SDS011;52812;48.960;9.108;2023-08-31T14:13:32;4.03;;;2.20;;
3085;SDS011;52812;48.960;9.108;2023-08-31T14:15:59;4.93;;;2.40;;
3085;SDS011;52812;48.960;9.108;2023-08-31T14:18:26;4.50;;;2.50;;
3085;SDS011;52812;48.960;9.108;2023-08-31T14:20:54;4.17;;;2.53;;
3085;SDS011;52812;48.960;9.108;2023-08-31T14:23:19;4.00;;;2.40;;
3085;SDS011;52812;48.960;9.108;2023-08-31T14:25:45;6.07;;;2.83;;
3085;SDS011;52812;48.960;9.108;2023-08-31T14:28:11;3.53;;;2.10;;
3085;SDS011;52812;48.960;9.108;2023-08-31T14:30:36;5.63;;;2.57;;
3085;SDS011;52812;48.960;9.108;2023-08-31T14:33:02;5.47;;;2.10;;
3085;SDS011;52812;48.960;9.108;2023-08-31T14:35:28;5.37;;;2.67;;
3085;SDS011;52812;48.960;9.108;2023-08-31T14:37:54;6.00;;;2.50;;
3085;SDS011;52812;48.960;9.108;2023-08-31T14:40:19;3.63;;;2.60;;
3085;SDS011;52812;48.960;9.108;2023-08-31T14:42:45;3.30;;;2.33;;
3085;SDS011;52812;48.960;9.108;2023-08-31T14:45:10;4.63;;;2.40;;
3085;SDS011;52812;48.960;9.108;2023-08-31T14:47:36;3.90;;;2.27;;
3085;SDS011;52812;48.960;9.108;2023-08-31T14:50:02;4.67;;;2.27;;
3085;SDS011;52812;48.960;9.108;2023-08-31T14:52:29;2.63;;;2.30;;
3085;SDS011;52812;48.960;9.108;2023-08-31T14:54:55;7.47;;;2.53;;
3085;SDS011;52812;48.960;9.108;2023-08-31T14:57:21;7.33;;;2.27;;
3085;SDS011;52812;48.960;9.108;2023-08-31T14:59:46;6.80;;;3.10;;
3085;SDS011;52812;48.960;9.108;2023-08-31T15:02:12;3.90;;;2.27;;
3085;SDS011;52812;48.960;9.108;2023-08-31T15:04:39;4.90;;;2.43;;
3085;SDS011;52812;48.960;9.108;2023-08-31T15:07:05;5.13;;;2.13;;
3085;SDS011;52812;48.960;9.108;2023-08-31T15:09:31;4.27;;;2.23;;
3085;SDS011;52812;48.960;9.108;2023-08-31T15:11:57;3.20;;;2.33;;
3085;SDS011;52812;48.960;9.108;2023-08-31T15:14:23;4.43;;;2.30;;
3085;SDS011;52812;48.960;9.108;2023-08-31T15:16:48;5.10;;;2.60;;
3085;SDS011;52812;48.960;9.108;2023-08-31T15:19:14;4.33;;;2.20;;
3085;SDS011;52812;48.960;9.108;2023-08-31T15:21:39;5.27;;;2.53;;
3085;SDS011;52812;48.960;9.108;2023-08-31T15:24:05;2.93;;;2.50;;
3085;SDS011;52812;48.960;9.108;2023-08-31T15:26:31;3.20;;;2.47;;
3085;SDS011;52812;48.960;9.108;2023-08-31T15:28:56;4.60;;;2.20;;
3085;SDS011;52812;48.960;9.108;2023-08-31T15:31:22;3.90;;;2.40;;
3085;SDS011;52812;48.960;9.108;2023-08-31T15:33:48;4.40;;;2.60;;
3085;SDS011;52812;48.960;9.108;2023-08-31T15:36:13;4.53;;;2.77;;
3085;SDS011;52812;48.960;9.108;2023-08-31T15:38:39;3.67;;;2.43;;